Terminal Aerodrome Forecast
Issued by NWS

Home | Current Version | Previous Version | Text Only | Print | Product List | Glossary On
Versions: 1 2 3 4 5 6 7 8 9 10 11 12 13 14 15
000
FTUS46 KMTR 251721
TAFSJC
TAF
KSJC 251721Z 2518/2618 30009KT P6SM SCT020
     FM252100 31015G21KT P6SM FEW030
     FM260300 30009G16KT P6SM FEW020
     FM260600 21006KT P6SM BKN025
     FM261100 18004KT P6SM OVC015=

USA.gov is the U.S. government's official web portal to all federal, state and local government web resources and services.